Time,TemperatureF,DewpointF,PressureIn,WindDirection,WindDirectionDegrees,WindSpeedMPH,WindSpeedGustMPH,Humidity,HourlyPrecipIn,Conditions,Clouds,dailyrainin,SoftwareType,DateUTC
2015-03-02 00:13:00,70.0,68.0,30.28,ENE,68,3.0,3.0,91,-99.99,,,-99.99,,2015-03-02 05:13:00,
2015-03-02 00:23:00,70.0,68.0,30.28,ENE,68,3.0,3.0,91,-99.99,,,-99.99,,2015-03-02 05:23:00,
2015-03-02 00:43:00,69.0,67.0,30.28,NE,56,4.0,5.0,92,-99.99,,,-99.99,,2015-03-02 05:43:00,
2015-03-02 01:22:00,68.0,66.0,30.27,NE,41,3.0,3.0,94,-99.99,,,-99.99,,2015-03-02 06:22:00,
2015-03-02 01:32:00,68.0,66.0,30.27,NE,41,3.0,3.0,94,-99.99,,,-99.99,,2015-03-02 06:32:00,
2015-03-02 01:53:00,67.0,66.0,30.26,NE,41,3.0,3.0,95,-99.99,,,-99.99,,2015-03-02 06:53:00,
2015-03-02 02:12:00,67.0,66.0,30.26,NE,53,2.0,3.0,96,-99.99,,,-99.99,,2015-03-02 07:12:00,
2015-03-02 02:52:00,71.0,68.0,30.24,ENE,70,5.0,6.0,91,-99.99,,,-99.99,,2015-03-02 07:52:00,
2015-03-02 03:12:00,71.0,68.0,30.24,ENE,78,4.0,5.0,90,-99.99,,,-99.99,,2015-03-02 08:12:00,
2015-03-02 03:22:00,71.0,68.0,30.24,ENE,78,4.0,5.0,90,-99.99,,,-99.99,,2015-03-02 08:22:00,
2015-03-02 03:52:00,71.0,69.0,30.23,East,92,3.0,4.0,92,-99.99,,,-99.99,,2015-03-02 08:52:00,
2015-03-02 04:12:00,71.0,69.0,30.23,East,83,3.0,4.0,91,-99.99,,,-99.99,,2015-03-02 09:12:00,
2015-03-02 04:22:00,71.0,68.0,30.22,East,81,4.0,5.0,90,-99.99,,,-99.99,,2015-03-02 09:22:00,
2015-03-02 04:33:00,71.0,68.0,30.22,East,81,4.0,5.0,90,-99.99,,,-99.99,,2015-03-02 09:33:00,
2015-03-02 04:54:00,70.0,67.0,30.22,ENE,71,3.0,4.0,89,-99.99,,,-99.99,,2015-03-02 09:54:00,
2015-03-02 05:13:00,70.0,67.0,30.22,NE,51,2.0,3.0,91,-99.99,,,-99.99,,2015-03-02 10:13:00,
2015-03-02 05:23:00,68.0,66.0,30.22,NE,34,2.0,3.0,93,-99.99,,,-99.99,,2015-03-02 10:23:00,
2015-03-02 05:43:00,68.0,66.0,30.23,NE,38,3.0,4.0,95,-99.99,,,-99.99,,2015-03-02 10:43:00,
2015-03-02 05:54:00,67.0,66.0,30.23,NE,35,3.0,4.0,95,-99.99,,,-99.99,,2015-03-02 10:54:00,
2015-03-02 06:03:00,67.0,66.0,30.23,NE,35,3.0,4.0,95,-99.99,,,-99.99,,2015-03-02 11:03:00,
2015-03-02 06:23:00,67.0,66.0,30.24,NE,34,4.0,4.0,96,-99.99,,,-99.99,,2015-03-02 11:23:00,
2015-03-02 06:33:00,67.0,66.0,30.24,NE,34,4.0,4.0,96,-99.99,,,-99.99,,2015-03-02 11:33:00,
2015-03-02 06:53:00,67.0,66.0,30.25,NE,46,4.0,5.0,96,-99.99,,,-99.99,,2015-03-02 11:53:00,
2015-03-02 07:12:00,67.0,66.0,30.25,NE,43,3.0,4.0,96,-99.99,,,-99.99,,2015-03-02 12:12:00,
2015-03-02 07:22:00,67.0,66.0,30.25,NE,43,3.0,4.0,96,-99.99,,,-99.99,,2015-03-02 12:22:00,
2015-03-02 07:43:00,68.0,67.0,30.26,ENE,59,3.0,4.0,96,-99.99,,,-99.99,,2015-03-02 12:43:00,
2015-03-02 08:23:00,71.0,68.0,30.26,ENE,78,3.0,5.0,88,-99.99,,,-99.99,,2015-03-02 13:23:00,
2015-03-02 08:53:00,74.0,68.0,30.26,East,89,4.0,6.0,80,-99.99,,,-99.99,,2015-03-02 13:53:00,
2015-03-02 09:12:00,75.0,68.0,30.27,ENE,75,5.0,8.0,78,-99.99,,,-99.99,,2015-03-02 14:12:00,
2015-03-02 09:22:00,75.0,68.0,30.27,ENE,75,5.0,8.0,78,-99.99,,,-99.99,,2015-03-02 14:22:00,
2015-03-02 09:52:00,76.0,67.0,30.28,East,94,7.0,10.0,73,-99.99,,,-99.99,,2015-03-02 14:52:00,
2015-03-02 10:12:00,77.0,67.0,30.28,ESE,102,7.0,11.0,70,-99.99,,,-99.99,,2015-03-02 15:12:00,
2015-03-02 10:22:00,77.0,67.0,30.28,ESE,102,7.0,11.0,70,-99.99,,,-99.99,,2015-03-02 15:22:00,
2015-03-02 11:13:00,79.0,66.0,30.28,ESE,104,7.0,11.0,65,-99.99,,,-99.99,,2015-03-02 16:13:00,
2015-03-02 11:24:00,79.0,66.0,30.28,ESE,104,7.0,11.0,65,-99.99,,,-99.99,,2015-03-02 16:24:00,
2015-03-02 11:44:00,79.0,66.0,30.27,East,91,7.0,12.0,64,-99.99,,,-99.99,,2015-03-02 16:44:00,
2015-03-02 12:12:00,80.0,67.0,30.26,ESE,102,9.0,13.0,64,-99.99,,,-99.99,,2015-03-02 17:12:00,
2015-03-02 12:23:00,80.0,67.0,30.26,ESE,102,9.0,13.0,64,-99.99,,,-99.99,,2015-03-02 17:23:00,
2015-03-02 12:32:00,80.0,67.0,30.26,ESE,102,9.0,13.0,64,-99.99,,,-99.99,,2015-03-02 17:32:00,
2015-03-02 12:53:00,80.0,67.0,30.24,ESE,106,9.0,13.0,64,-99.99,,,-99.99,,2015-03-02 17:53:00,
2015-03-02 13:13:00,80.0,67.0,30.23,East,99,7.0,12.0,65,-99.99,,,-99.99,,2015-03-02 18:13:00,
2015-03-02 13:23:00,80.0,67.0,30.23,East,99,7.0,12.0,65,-99.99,,,-99.99,,2015-03-02 18:23:00,
2015-03-02 13:33:00,80.0,67.0,30.23,East,99,7.0,12.0,65,-99.99,,,-99.99,,2015-03-02 18:33:00,
2015-03-02 14:23:00,79.0,68.0,30.20,East,79,8.0,14.0,67,-99.99,,,-99.99,,2015-03-02 19:23:00,
2015-03-02 14:33:00,79.0,68.0,30.20,East,79,8.0,14.0,67,-99.99,,,-99.99,,2015-03-02 19:33:00,
2015-03-02 14:43:00,79.0,68.0,30.20,East,79,8.0,14.0,67,-99.99,,,-99.99,,2015-03-02 19:43:00,
2015-03-02 16:22:00,77.0,68.0,30.18,East,81,10.0,15.0,72,-99.99,,,-99.99,,2015-03-02 21:22:00,
2015-03-02 16:33:00,77.0,68.0,30.18,East,81,10.0,15.0,72,-99.99,,,-99.99,,2015-03-02 21:33:00,
2015-03-02 17:24:00,78.0,68.0,30.18,East,87,8.0,12.0,71,-99.99,,,-99.99,,2015-03-02 22:24:00,
2015-03-02 17:33:00,78.0,68.0,30.18,East,87,8.0,12.0,71,-99.99,,,-99.99,,2015-03-02 22:33:00,
2015-03-02 17:54:00,77.0,68.0,30.18,ENE,78,7.0,11.0,72,-99.99,,,-99.99,,2015-03-02 22:54:00,
2015-03-02 18:13:00,77.0,68.0,30.18,ENE,70,6.0,11.0,71,-99.99,,,-99.99,,2015-03-02 23:13:00,